createdAt,value
2023-03-24T00:02:25.201Z,66.66
2023-03-24T00:05:16.262Z,66.21
2023-03-24T00:08:06.395Z,66.07
2023-03-24T00:10:54.776Z,65.83
2023-03-24T00:13:43.114Z,65.85
2023-03-24T00:16:34.756Z,65.12
2023-03-24T00:19:23.227Z,65.27
2023-03-24T00:22:14.496Z,65.04
2023-03-24T00:25:04.409Z,65.10
2023-03-24T00:27:53.344Z,65.56
2023-03-24T00:30:42.950Z,64.91
2023-03-24T00:33:32.889Z,65.28
2023-03-24T00:36:23.201Z,65.76
2023-03-24T00:39:12.030Z,65.13
2023-03-24T00:42:03.448Z,65.09
2023-03-24T00:44:53.899Z,64.43
2023-03-24T00:47:44.830Z,64.10
2023-03-24T00:50:33.544Z,65.09
2023-03-24T00:53:23.271Z,65.90
2023-03-24T00:56:15.643Z,66.88
2023-03-24T00:59:05.541Z,67.54
2023-03-24T01:01:53.936Z,68.31
2023-03-24T01:04:47.307Z,68.26
2023-03-24T01:07:36.255Z,68.28
2023-03-24T01:10:26.497Z,68.52
2023-03-24T01:13:15.237Z,69.97
2023-03-24T01:16:06.694Z,71.12
2023-03-24T01:18:55.273Z,71.40
2023-03-24T01:21:43.716Z,71.30
2023-03-24T01:24:32.111Z,71.24
2023-03-24T01:27:20.495Z,71.26
2023-03-24T01:30:10.368Z,71.48
2023-03-24T01:33:00.589Z,71.00
2023-03-24T01:35:49.250Z,70.25
2023-03-24T01:38:38.004Z,69.93
2023-03-24T01:41:27.986Z,69.69
2023-03-24T01:44:31.910Z,70.62
2023-03-24T01:47:20.477Z,70.29
2023-03-24T01:50:10.230Z,70.02
2023-03-24T01:52:58.726Z,69.76
2023-03-24T01:55:48.964Z,70.41
2023-03-24T01:58:44.845Z,70.96
2023-03-24T02:01:39.866Z,70.13
2023-03-24T02:05:01.128Z,69.69
2023-03-24T02:08:03.605Z,69.24
2023-03-24T02:10:53.583Z,69.24
2023-03-24T02:13:42.096Z,69.08
2023-03-24T02:16:53.611Z,69.89
2023-03-24T02:19:56.182Z,70.40
2023-03-24T02:23:22.782Z,72.11
2023-03-24T02:26:36.332Z,73.38
2023-03-24T02:30:04.946Z,74.76
2023-03-24T02:33:29.429Z,74.72
2023-03-24T02:36:42.402Z,76.08
2023-03-24T02:39:51.476Z,78.17
2023-03-24T02:42:46.831Z,78.36
2023-03-24T02:45:38.080Z,77.81
2023-03-24T02:48:33.164Z,77.32
2023-03-24T02:51:26.014Z,77.52
2023-03-24T02:54:18.592Z,76.62
2023-03-24T02:57:11.509Z,76.47
2023-03-24T03:00:32.457Z,76.62
2023-03-24T03:03:34.410Z,76.19
2023-03-24T03:06:26.794Z,76.46
2023-03-24T03:09:17.777Z,76.15
2023-03-24T03:12:08.179Z,76.91
2023-03-24T03:15:01.135Z,76.82
2023-03-24T03:17:53.274Z,77.95
2023-03-24T03:20:51.021Z,77.91
2023-03-24T03:23:42.572Z,77.48
2023-03-24T03:26:32.927Z,77.08
2023-03-24T03:29:24.312Z,77.84
2023-03-24T03:32:16.915Z,77.00
2023-03-24T03:35:08.844Z,77.09
2023-03-24T03:38:01.692Z,76.56
2023-03-24T03:40:52.068Z,77.14
2023-03-24T03:43:43.801Z,77.55
2023-03-24T03:46:35.933Z,76.05
2023-03-24T03:49:27.073Z,75.21
2023-03-24T03:52:16.066Z,75.35
2023-03-24T03:55:05.965Z,74.87
2023-03-24T03:57:54.742Z,74.70
2023-03-24T04:00:55.897Z,75.97
2023-03-24T04:04:09.227Z,76.35
2023-03-24T04:07:25.199Z,76.20
2023-03-24T04:10:32.577Z,76.47
2023-03-24T04:13:27.448Z,75.91
2023-03-24T04:16:55.012Z,76.10
2023-03-24T04:19:58.898Z,75.76
2023-03-24T04:22:58.517Z,76.96
2023-03-24T04:25:51.001Z,76.53
2023-03-24T04:28:43.321Z,77.36
2023-03-24T04:31:35.115Z,77.02
2023-03-24T04:34:29.227Z,77.09
2023-03-24T04:37:25.126Z,77.04
2023-03-24T04:40:20.253Z,77.32
2023-03-24T04:43:10.946Z,77.25
2023-03-24T04:45:59.428Z,76.91
2023-03-24T04:49:06.901Z,77.00
2023-03-24T04:51:57.696Z,76.40
2023-03-24T04:54:49.896Z,76.39
2023-03-24T04:57:38.268Z,76.69
2023-03-24T05:00:27.667Z,78.68
2023-03-24T05:03:17.467Z,79.27
2023-03-24T05:06:06.789Z,79.65
2023-03-24T05:08:57.733Z,80.86
2023-03-24T05:11:50.531Z,81.40
2023-03-24T05:14:39.376Z,81.64
2023-03-24T05:17:28.943Z,82.18
2023-03-24T05:20:17.644Z,82.46
2023-03-24T05:23:10.415Z,81.91
2023-03-24T05:26:00.027Z,81.28
2023-03-24T05:28:52.794Z,81.38
2023-03-24T05:31:41.330Z,82.68
2023-03-24T05:34:31.703Z,82.85
2023-03-24T05:37:31.188Z,82.01
2023-03-24T05:40:19.893Z,83.14
2023-03-24T05:43:13.162Z,81.43
2023-03-24T05:46:08.420Z,81.74
2023-03-24T05:48:56.832Z,82.20
2023-03-24T05:51:51.396Z,83.12
2023-03-24T05:54:39.887Z,82.43
2023-03-24T05:57:37.109Z,83.12
2023-03-24T06:00:50.459Z,84.11
2023-03-24T06:03:52.920Z,82.93
2023-03-24T06:06:45.751Z,82.35
2023-03-24T06:09:40.830Z,82.02
2023-03-24T06:12:30.268Z,81.77
2023-03-24T06:15:22.780Z,81.66
2023-03-24T06:18:14.130Z,81.47
2023-03-24T06:21:04.405Z,82.06
2023-03-24T06:23:56.438Z,80.95
2023-03-24T06:26:50.124Z,81.73
2023-03-24T06:29:39.358Z,81.94
2023-03-24T06:32:28.886Z,82.10
2023-03-24T06:35:17.836Z,82.97
2023-03-24T06:38:16.219Z,82.46
2023-03-24T06:41:07.505Z,82.27
2023-03-24T06:43:57.462Z,81.96
2023-03-24T06:46:47.296Z,82.69
2023-03-24T06:49:37.256Z,80.00
2023-03-24T06:52:27.880Z,82.10
2023-03-24T06:55:18.755Z,82.10
2023-03-24T06:58:07.168Z,82.32
2023-03-24T07:01:16.042Z,81.42
2023-03-24T07:04:48.229Z,80.61
2023-03-24T07:10:53.785Z,80.09
2023-03-24T07:13:42.462Z,80.14
2023-03-24T07:16:31.227Z,79.82
2023-03-24T07:19:46.122Z,80.85
2023-03-24T07:22:56.861Z,81.88
2023-03-24T07:25:47.904Z,81.64
2023-03-24T07:28:49.398Z,82.12
2023-03-24T07:31:48.883Z,82.25
2023-03-24T07:34:39.250Z,81.63
2023-03-24T07:37:27.590Z,82.60
2023-03-24T07:40:17.028Z,82.53
2023-03-24T07:43:07.001Z,83.49
2023-03-24T07:46:05.600Z,83.19
2023-03-24T07:48:54.978Z,84.22
2023-03-24T07:51:44.505Z,84.35
2023-03-24T07:54:55.516Z,84.97
2023-03-24T07:58:07.570Z,84.56
2023-03-24T08:00:56.700Z,84.68
2023-03-24T08:03:56.205Z,86.62
2023-03-24T08:07:12.315Z,87.02
2023-03-24T08:10:00.821Z,89.33
2023-03-24T08:12:49.308Z,89.16
2023-03-24T08:15:37.991Z,88.29
2023-03-24T08:18:26.476Z,89.06
2023-03-24T08:21:16.610Z,88.64
2023-03-24T08:24:06.756Z,89.08
2023-03-24T08:26:58.652Z,89.49
2023-03-24T08:29:47.061Z,89.51
2023-03-24T08:32:37.279Z,89.67
2023-03-24T08:35:28.872Z,88.80
2023-03-24T08:38:19.197Z,89.15
2023-03-24T08:41:08.513Z,88.32
2023-03-24T08:43:56.987Z,89.59
2023-03-24T08:46:45.443Z,90.15
2023-03-24T08:49:33.885Z,91.66
2023-03-24T08:52:22.220Z,92.36
2023-03-24T08:55:12.212Z,92.89
2023-03-24T08:58:00.710Z,92.36
2023-03-24T09:00:49.987Z,92.17
2023-03-24T09:03:39.604Z,92.66
2023-03-24T09:06:28.283Z,93.33
2023-03-24T09:09:16.633Z,94.31
2023-03-24T09:12:06.689Z,95.24
2023-03-24T09:14:55.309Z,94.74
2023-03-24T09:17:43.956Z,96.14
2023-03-24T09:20:32.472Z,95.56
2023-03-24T09:23:21.608Z,95.88
2023-03-24T09:26:09.976Z,96.00
2023-03-24T09:28:59.661Z,96.12
2023-03-24T09:31:48.045Z,96.05
2023-03-24T09:34:38.329Z,95.14
2023-03-24T09:37:26.821Z,96.03
2023-03-24T09:40:19.850Z,96.82
2023-03-24T09:43:11.930Z,96.76
2023-03-24T09:46:03.220Z,96.51
2023-03-24T09:48:54.006Z,96.02
2023-03-24T09:51:44.606Z,96.16
2023-03-24T09:54:39.878Z,95.75
2023-03-24T09:57:30.431Z,95.56
2023-03-24T10:00:20.991Z,95.25
2023-03-24T10:03:16.849Z,96.38
2023-03-24T10:06:09.663Z,97.32
2023-03-24T10:09:07.833Z,97.49
2023-03-24T10:12:06.541Z,97.06
2023-03-24T10:15:08.650Z,97.66
2023-03-24T10:18:00.356Z,98.15
2023-03-24T10:20:53.792Z,98.91
2023-03-24T10:23:47.240Z,98.96
2023-03-24T10:26:41.839Z,99.55
2023-03-24T10:29:31.777Z,99.05
2023-03-24T10:32:22.741Z,99.66
2023-03-24T10:35:16.875Z,99.22
2023-03-24T10:38:16.856Z,99.15
2023-03-24T10:41:05.875Z,98.90
2023-03-24T10:43:55.878Z,99.00
2023-03-24T10:46:48.239Z,99.71
2023-03-24T10:49:36.586Z,99.26
2023-03-24T10:52:25.548Z,99.01
2023-03-24T10:55:19.320Z,99.35
2023-03-24T10:58:17.091Z,99.27
2023-03-24T11:01:10.541Z,98.74
2023-03-24T11:04:00.691Z,97.79
2023-03-24T11:07:04.073Z,97.82
2023-03-24T11:10:00.374Z,98.10
2023-03-24T11:13:05.051Z,97.18
2023-03-24T11:15:56.174Z,97.08
2023-03-24T11:18:57.852Z,96.77
2023-03-24T11:21:46.474Z,97.30
2023-03-24T11:24:37.938Z,98.33
2023-03-24T11:27:26.396Z,96.93
2023-03-24T11:30:16.536Z,97.37
2023-03-24T11:33:06.435Z,96.44
2023-03-24T11:36:05.082Z,96.64
2023-03-24T11:39:00.441Z,95.32
2023-03-24T11:42:00.541Z,93.88
2023-03-24T11:44:51.352Z,91.70
2023-03-24T11:47:41.304Z,92.58
2023-03-24T11:50:31.378Z,92.58
2023-03-24T11:53:23.215Z,92.03
2023-03-24T11:56:14.767Z,89.66
2023-03-24T11:59:06.814Z,90.39
2023-03-24T12:02:00.985Z,89.78
2023-03-24T12:05:10.841Z,89.02
2023-03-24T12:08:14.705Z,88.56
2023-03-24T12:11:09.134Z,87.16
2023-03-24T12:13:58.151Z,86.79
2023-03-24T12:16:53.868Z,84.85
2023-03-24T12:19:58.791Z,85.73
2023-03-24T12:22:59.245Z,82.42
2023-03-24T12:25:58.980Z,80.61
2023-03-24T12:29:16.385Z,82.00
2023-03-24T12:32:13.539Z,81.76
2023-03-24T12:35:25.621Z,79.77
2023-03-24T12:38:32.575Z,79.31
2023-03-24T12:41:35.067Z,77.30
2023-03-24T12:45:07.823Z,76.38
2023-03-24T12:48:06.872Z,70.80
2023-03-24T12:51:04.444Z,71.39
2023-03-24T12:54:07.632Z,69.54
2023-03-24T12:56:58.348Z,69.72
2023-03-24T12:59:49.412Z,69.02
2023-03-24T13:02:39.858Z,70.70
2023-03-24T13:05:31.292Z,69.38
2023-03-24T13:08:29.642Z,68.92
2023-03-24T13:11:32.702Z,70.20
2023-03-24T13:14:27.005Z,70.27
2023-03-24T13:17:19.650Z,71.11
2023-03-24T13:20:14.471Z,70.88
2023-03-24T13:23:07.885Z,70.83
2023-03-24T13:26:05.909Z,71.33
2023-03-24T13:29:06.171Z,68.73
2023-03-24T13:31:57.783Z,69.79
2023-03-24T13:34:49.669Z,70.43
2023-03-24T13:37:41.270Z,69.18
2023-03-24T13:40:32.551Z,68.23
2023-03-24T13:43:22.631Z,66.01
2023-03-24T13:46:14.466Z,64.15
2023-03-24T13:49:06.549Z,64.08
2023-03-24T13:51:54.956Z,64.90
2023-03-24T13:54:44.150Z,65.36
2023-03-24T13:57:32.627Z,66.68
2023-03-24T14:00:23.264Z,66.39
2023-03-24T14:03:20.887Z,67.10
2023-03-24T14:06:09.786Z,68.52
2023-03-24T14:09:05.577Z,65.63
2023-03-24T14:12:18.056Z,66.63
2023-03-24T14:15:18.930Z,66.16
2023-03-24T14:18:42.594Z,64.24
2023-03-24T14:21:31.572Z,65.53
2023-03-24T14:24:24.909Z,65.64
2023-03-24T14:27:24.637Z,65.41
2023-03-24T14:30:19.947Z,66.71
2023-03-24T14:33:23.941Z,65.87
2023-03-24T14:36:20.774Z,65.47
2023-03-24T14:39:21.116Z,65.78
2023-03-24T14:42:47.200Z,65.73
2023-03-24T14:45:54.334Z,65.64
2023-03-24T14:48:57.427Z,66.15
2023-03-24T14:51:55.214Z,67.67
2023-03-24T14:54:46.333Z,67.26
2023-03-24T14:57:39.061Z,66.86
2023-03-24T15:00:32.828Z,66.94
2023-03-24T15:03:27.097Z,67.16
2023-03-24T15:06:17.106Z,66.97
2023-03-24T15:09:10.885Z,67.23
2023-03-24T15:12:00.729Z,67.19
2023-03-24T15:14:49.144Z,66.98
2023-03-24T15:17:38.624Z,66.96
2023-03-24T15:20:28.790Z,67.38
2023-03-24T15:23:18.830Z,67.26
2023-03-24T15:26:13.875Z,67.66
2023-03-24T15:29:03.871Z,67.61
2023-03-24T15:31:52.378Z,67.99
2023-03-24T15:34:42.349Z,68.06
2023-03-24T15:37:38.049Z,67.51
2023-03-24T15:40:36.539Z,67.26
2023-03-24T15:43:26.523Z,67.78
2023-03-24T15:46:23.485Z,65.70
2023-03-24T15:49:19.375Z,65.23
2023-03-24T15:52:26.581Z,65.61
2023-03-24T15:55:24.454Z,65.21
2023-03-24T15:58:23.836Z,66.02
2023-03-24T16:01:17.276Z,66.22
2023-03-24T16:04:07.505Z,66.59
2023-03-24T16:06:57.656Z,65.97
2023-03-24T16:09:47.412Z,66.74
2023-03-24T16:12:37.493Z,66.80
2023-03-24T16:15:25.864Z,67.60
2023-03-24T16:18:18.385Z,68.38
2023-03-24T16:21:12.600Z,68.91
2023-03-24T16:24:01.079Z,69.34
2023-03-24T16:26:50.118Z,70.74
2023-03-24T16:29:38.493Z,70.86
2023-03-24T16:32:26.908Z,72.15
2023-03-24T16:35:16.912Z,73.16
2023-03-24T16:38:06.017Z,74.28
2023-03-24T16:40:55.898Z,76.38
2023-03-24T16:43:45.097Z,76.87
2023-03-24T16:46:35.480Z,77.48
2023-03-24T16:49:24.543Z,77.90
2023-03-24T16:52:15.842Z,79.13
2023-03-24T16:55:06.408Z,80.82
2023-03-24T16:57:54.802Z,81.23
2023-03-24T17:00:43.854Z,81.46
2023-03-24T17:03:32.532Z,81.06
2023-03-24T17:06:21.164Z,81.30
2023-03-24T17:09:12.644Z,80.82
2023-03-24T17:12:02.266Z,81.56
2023-03-24T17:14:50.596Z,81.14
2023-03-24T17:17:39.370Z,81.11
2023-03-24T17:20:29.629Z,81.22
2023-03-24T17:23:18.945Z,81.90
2023-03-24T17:26:08.739Z,82.02
2023-03-24T17:28:57.227Z,82.51
2023-03-24T17:31:45.707Z,82.72
2023-03-24T17:34:34.140Z,83.20
2023-03-24T17:37:23.856Z,83.14
2023-03-24T17:40:14.926Z,83.84
2023-03-24T17:43:05.537Z,83.64
2023-03-24T17:45:57.965Z,83.13
2023-03-24T17:48:47.267Z,83.75
2023-03-24T17:51:37.686Z,83.79
2023-03-24T17:54:28.150Z,84.06
2023-03-24T17:57:16.652Z,83.75
2023-03-24T18:00:11.093Z,83.71
2023-03-24T18:02:59.524Z,83.75
2023-03-24T18:05:48.025Z,83.31
2023-03-24T18:08:36.886Z,82.81
2023-03-24T18:11:25.412Z,82.98
2023-03-24T18:14:13.837Z,82.63
2023-03-24T18:17:03.969Z,82.06
2023-03-24T18:19:52.984Z,81.81
2023-03-24T18:22:41.673Z,81.69
2023-03-24T18:25:30.147Z,81.29
2023-03-24T18:28:18.508Z,80.22
2023-03-24T18:31:10.164Z,80.59
2023-03-24T18:34:01.305Z,80.32
2023-03-24T18:36:50.192Z,79.90
2023-03-24T18:39:39.367Z,79.35
2023-03-24T18:42:27.775Z,78.99
2023-03-24T18:45:18.574Z,78.16
2023-03-24T18:48:07.824Z,78.70
2023-03-24T18:50:58.724Z,79.36
2023-03-24T18:53:47.681Z,78.34
2023-03-24T18:56:36.464Z,78.36
2023-03-24T18:59:25.415Z,78.42
2023-03-24T19:02:15.256Z,78.33
2023-03-24T19:05:04.103Z,78.65
2023-03-24T19:07:53.856Z,78.76
2023-03-24T19:10:43.171Z,78.33
2023-03-24T19:13:31.657Z,78.35
2023-03-24T19:16:21.424Z,79.09
2023-03-24T19:19:10.172Z,78.54
2023-03-24T19:21:59.319Z,78.80
2023-03-24T19:24:50.049Z,78.63
2023-03-24T19:27:38.396Z,78.79
2023-03-24T19:30:27.535Z,79.24
2023-03-24T19:33:16.062Z,78.48
2023-03-24T19:36:05.063Z,78.21
2023-03-24T19:38:53.753Z,78.01
2023-03-24T19:41:43.554Z,77.48
2023-03-24T19:44:32.112Z,77.29
2023-03-24T19:47:20.507Z,76.77
2023-03-24T19:50:10.092Z,76.74
2023-03-24T19:52:58.473Z,76.69
2023-03-24T19:55:46.832Z,76.57
2023-03-24T19:58:36.650Z,76.63
2023-03-24T20:01:25.048Z,76.38
2023-03-24T20:04:13.472Z,76.31
2023-03-24T20:07:03.270Z,75.03
2023-03-24T20:09:51.727Z,75.55
2023-03-24T20:12:40.293Z,74.58
2023-03-24T20:15:30.051Z,74.51
2023-03-24T20:18:18.428Z,73.61
2023-03-24T20:21:08.487Z,73.24
2023-03-24T20:23:56.860Z,73.75
2023-03-24T20:26:46.546Z,73.89
2023-03-24T20:29:36.857Z,74.06
2023-03-24T20:32:26.687Z,73.47
2023-03-24T20:35:15.338Z,74.00
2023-03-24T20:38:03.724Z,73.82
2023-03-24T20:40:59.223Z,73.88
2023-03-24T20:43:47.848Z,73.86
2023-03-24T20:46:36.342Z,73.42
2023-03-24T20:49:26.517Z,72.71
2023-03-24T20:52:15.356Z,73.19
2023-03-24T20:55:06.229Z,74.12
2023-03-24T20:57:55.971Z,73.42
2023-03-24T21:00:47.583Z,73.57
2023-03-24T21:03:36.628Z,72.63
2023-03-24T21:06:26.581Z,73.38
2023-03-24T21:09:15.033Z,72.57
2023-03-24T21:12:03.902Z,73.55
2023-03-24T21:14:52.319Z,72.90
2023-03-24T21:17:40.915Z,73.15
2023-03-24T21:20:30.679Z,72.71
2023-03-24T21:23:21.583Z,72.90
2023-03-24T21:26:13.487Z,73.01
2023-03-24T21:29:01.891Z,73.04
2023-03-24T21:31:51.487Z,73.25
2023-03-24T21:34:39.880Z,73.88
2023-03-24T21:37:30.180Z,73.27
2023-03-24T21:40:22.016Z,73.32
2023-03-24T21:43:10.787Z,74.03
2023-03-24T21:46:00.047Z,73.94
2023-03-24T21:48:51.456Z,73.50
2023-03-24T21:51:42.944Z,73.32
2023-03-24T21:54:33.384Z,74.01
2023-03-24T21:57:23.202Z,74.24
2023-03-24T22:00:14.806Z,74.54
2023-03-24T22:03:03.762Z,74.54
2023-03-24T22:05:54.568Z,75.23
2023-03-24T22:08:44.136Z,74.62
2023-03-24T22:11:32.905Z,74.57
2023-03-24T22:14:22.635Z,74.30
2023-03-24T22:17:11.029Z,75.02
2023-03-24T22:19:59.388Z,74.73
2023-03-24T22:22:47.921Z,74.89
2023-03-24T22:25:36.948Z,75.48
2023-03-24T22:28:25.416Z,75.44
2023-03-24T22:31:16.893Z,75.86
2023-03-24T22:34:05.380Z,75.13
2023-03-24T22:36:53.787Z,76.10
2023-03-24T22:39:42.633Z,76.00
2023-03-24T22:42:31.093Z,76.74
2023-03-24T22:45:19.457Z,75.90
2023-03-24T22:48:09.327Z,76.82
2023-03-24T22:50:57.833Z,76.56
2023-03-24T22:53:46.691Z,77.08
2023-03-24T22:56:35.107Z,76.12
2023-03-24T22:59:24.649Z,75.67
2023-03-24T23:02:13.101Z,76.26
2023-03-24T23:05:03.007Z,76.62
2023-03-24T23:07:51.437Z,76.86
2023-03-24T23:10:40.721Z,76.47
2023-03-24T23:13:30.887Z,77.34
2023-03-24T23:16:19.946Z,76.46
2023-03-24T23:19:09.503Z,76.86
2023-03-24T23:21:59.390Z,76.27
2023-03-24T23:24:48.034Z,76.98
2023-03-24T23:27:37.096Z,76.87
2023-03-24T23:30:25.686Z,77.37
2023-03-24T23:33:15.073Z,77.60
2023-03-24T23:36:04.419Z,77.77
2023-03-24T23:38:55.797Z,77.42
2023-03-24T23:41:44.306Z,78.47
2023-03-24T23:44:32.720Z,77.89
2023-03-24T23:47:21.066Z,77.77
2023-03-24T23:50:10.730Z,77.88
2023-03-24T23:52:59.504Z,76.92
2023-03-24T23:55:57.113Z,77.86
2023-03-24T23:58:45.841Z,77.38
